Honolulu, Hawaii
Current Conditions -  °F | °C
As of 4:53 AM on Wednesday 26 Nov 2014 (Local Time) from PHNL Reporting Station
Broken Clouds Broken Clouds  
Wind Chill: 72°   Ceiling: 6000
Heat Index: 72°   Visibility: 10mi
Dew Point: 59°   Wind: 6mph
Humidity: 64%   Direction: 10°N
Pressure: 30.02"   Gusts: NA
Location:  21.3°N, 157.85°W
Report Text: PHNL 261453Z 01005KT 10SM BKN060 22/15 A3002 RMK AO2 SLP166 T02220150 55003
Loading
Personal Weather Stations






























Interactive Weather Map New forecast layout! Learn more

10-Day Weather Forecast

Advertisements
Track Severe Weather on mobile